SCFASCCF

Guest
Details From SCFA - CERRO MORENO INTL
To SCCF - EL LOA
Flight Number -
Tags generated
Created
Modified
Stats Distance 103 nm / 191 km
Max Altitude 0 ft / 0 m
Waypoints 3
Social Downloads 1
Likes 0
Share VATSIM

Download

Looking for another format? Having issues loading an existing format? Contact us
Advertisement - Login to hide

Notes

Basic altitude profile: - Ascent Rate: 2500ft/min - Ascent Speed: 250kts - Cruise Altitude: 20000ft - Cruise Speed: 420kts - Descent Rate: 1500ft/min - Descent Speed: 250kts Options: - Use NATs: yes - Use PACOTS: yes - Use low airways: yes - Use high airways: yes

Route

SCFA CFL SCCF

ID Type Via Altitude Latitude Longitude Leg Dist Tot Dist Heading (true) Name
O SCFA APT - 0 ft / 0 m -23.44448˚ -70.44510˚ - 0 nm - CERRO MORENO INTL
CFL NDB - 0 ft / 0 m -22.49361˚ -68.90306˚ 102 nm 102 nm 56° / 56° CALAMA NDB
O SCCF APT - 0 ft / 0 m -22.49818˚ -68.90358˚ 0 nm 102 nm 186° / 186° EL LOA

Altitude Profile

Advertisement - Login to hide

SCFA

Details ICAO SCFA (ANF)
Name CERRO MORENO INTL
Region Chile
Timezone America/Santiago (UTC-3.0)
Stats Elevation 455 ft / 139 m (AMSL)
Location -23.444477° -70.445100°
Runways 1
Magnetic Variation 3.475° W

METAR

SCFA 160900Z 34009KT 9999 BKN027 19/11 Q1012 NOSIG

Decode

TAF

TAF SCFA 152250Z 1600/1624 18006KT 9999 SCT015 TN16/1606Z TX23/1618Z BECMG 1601/1603 OVC012 BECMG 1604/1606 36004KT BECMG 1615/1617 21013KT FEW016

Decode

Departure Runways

ID Width Length Bearing (true) Bearing (mag) Surface Threshold Offset Overrun Length
01 164 ft / 50 m 8,567 ft / 2,611 m 6.86° 10.34° Asphalt 0 ft / 0 m 50 ft / 15 m
19 164 ft / 50 m 8,567 ft / 2,611 m 186.86° 190.34° Asphalt 0 ft / 0 m 155 ft / 47 m

SCCF

Details ICAO SCCF (CJC)
Name EL LOA
Region Chile
Timezone America/Santiago (UTC-3.0)
Stats Elevation 7,543 ft / 2,299 m (AMSL)
Location -22.498175° -68.903575°
Runways 1
Magnetic Variation 5.265° W

METAR

SCCF 160900Z 14009KT CAVOK 08/M07 Q1022

Decode

TAF

TAF SCCF 160439Z 1606/1706 11015KT CAVOK TN06/1606Z TX25/1618Z BECMG 1611/1613 08010KT BECMG 1616/1618 27025KT BECMG 1700/1702 27015KT BECMG 1704/1706 11012KT

Decode

Destination Runways

ID Width Length Bearing (true) Bearing (mag) Surface Threshold Offset Overrun Length
10 98 ft / 30 m 9,455 ft / 2,882 m 93.61° 98.87° Asphalt 0 ft / 0 m 100 ft / 30 m
28 98 ft / 30 m 9,455 ft / 2,882 m 273.60° 278.86° Asphalt 0 ft / 0 m 100 ft / 30 m